PWSweather.com
Personal Weather Stations
Station Observations
LOBIOS
Galicia, LobiosES

GaliciaLobiosES

Lat: 41.895, Lon: -8.091667

Elevation: 1597

Station Type: Automática/Davis Vantage Pro2 Plus

www.meteolobios.es

High Low Average
Temperature 53.0°F11.7°C 42.2°F5.7°C 47.4°F8.6°C
Dew Point 51.9°F11.1°C 40.6°F4.8°C 45.7°F7.6°C
Winds 13.8 mph 22.2 kmh Calm Calm 3.0 mph SW4.8 kmh SW
Wind Gusts 24.2 mph38.9 kmh -- 6.0 mph9.7 kmh
Humidity 96% 86% 94%
Pressure 30.39 in1029.1 mb 30.06 in1017.9 mb -
Precipitation 0.78 in19.8 mm - -
Hour Temp Dew Point Humidity Winds Wind Gusts Pressure Precip Precip Rate Daily Precip Total
12:00 AM 53.0°F11.7°C 51.9°F11.1°C 96% 1.1 mph WSW1.8 kmh WSW 3.5 mph5.6 kmh 30.12 in1020.0 mb - 0.10 in2.5 mm 0.10 in2.5 mm
12:10 AM 53.0°F11.7°C 51.9°F11.1°C 96% Calm Calm 1.1 mph1.8 kmh 30.10 in1019.3 mb - 0.02 in0.5 mm 0.02 in0.5 mm
12:20 AM 53.0°F11.7°C 51.9°F11.1°C 96% Calm Calm -- 30.10 in1019.3 mb - 0.01 in0.3 mm 0.02 in0.5 mm
12:30 AM 52.9°F11.6°C 51.8°F11.0°C 96% Calm Calm 2.3 mph3.7 kmh 30.10 in1019.3 mb - 0.00 in0.0 mm 0.02 in0.5 mm
12:40 AM 52.9°F11.6°C 51.8°F11.0°C 96% 5.8 mph SW9.3 kmh SW 9.2 mph14.8 kmh 30.11 in1019.6 mb - 0.02 in0.5 mm 0.04 in1.0 mm
12:50 AM 52.8°F11.6°C 51.7°F10.9°C 96% 2.3 mph SW3.7 kmh SW 4.6 mph7.4 kmh 30.11 in1019.6 mb - 0.00 in0.0 mm 0.04 in1.0 mm
01:00 AM 52.8°F11.6°C 51.7°F10.9°C 96% 2.3 mph SW3.7 kmh SW 8.1 mph13.0 kmh 30.10 in1019.3 mb - 0.00 in0.0 mm 0.04 in1.0 mm
01:10 AM 52.7°F11.5°C 51.6°F10.9°C 96% 1.1 mph WSW1.8 kmh WSW 2.3 mph3.7 kmh 30.09 in1019.0 mb - 0.00 in0.0 mm 0.04 in1.0 mm
01:20 AM 52.6°F11.4°C 51.5°F10.8°C 96% 1.1 mph SW1.8 kmh SW 3.5 mph5.6 kmh 30.08 in1018.6 mb - 0.01 in0.3 mm 0.05 in1.3 mm
01:30 AM 52.5°F11.4°C 51.4°F10.8°C 96% 3.5 mph SW5.6 kmh SW 4.6 mph7.4 kmh 30.09 in1019.0 mb - 0.01 in0.3 mm 0.06 in1.5 mm
01:40 AM 52.4°F11.3°C 51.3°F10.7°C 96% 4.6 mph SW7.4 kmh SW 8.1 mph13.0 kmh 30.09 in1019.0 mb - 0.01 in0.3 mm 0.06 in1.5 mm
01:50 AM 52.3°F11.3°C 51.2°F10.7°C 96% 1.1 mph SW1.8 kmh SW 3.5 mph5.6 kmh 30.08 in1018.6 mb - 0.00 in0.0 mm 0.06 in1.5 mm
02:00 AM 52.2°F11.2°C 51.1°F10.6°C 96% 3.5 mph SW5.6 kmh SW 9.2 mph14.8 kmh 30.08 in1018.6 mb - 0.00 in0.0 mm 0.06 in1.5 mm
02:10 AM 52.0°F11.1°C 50.9°F10.5°C 96% 1.1 mph NW1.8 kmh NW 2.3 mph3.7 kmh 30.07 in1018.3 mb - 0.02 in0.5 mm 0.09 in2.3 mm
02:20 AM 51.9°F11.1°C 50.8°F10.4°C 96% 2.3 mph SW3.7 kmh SW 4.6 mph7.4 kmh 30.07 in1018.3 mb - 0.01 in0.3 mm 0.09 in2.3 mm
02:30 AM 51.7°F10.9°C 50.6°F10.3°C 96% 1.1 mph SW1.8 kmh SW 6.9 mph11.1 kmh 30.08 in1018.6 mb - 0.00 in0.0 mm 0.09 in2.3 mm
02:40 AM 51.6°F10.9°C 50.5°F10.3°C 96% 2.3 mph SW3.7 kmh SW 4.6 mph7.4 kmh 30.07 in1018.3 mb - 0.02 in0.5 mm 0.11 in2.8 mm
02:50 AM 51.5°F10.8°C 50.4°F10.2°C 96% 1.1 mph SW1.8 kmh SW 2.3 mph3.7 kmh 30.07 in1018.3 mb - 0.02 in0.5 mm 0.13 in3.3 mm
03:00 AM 51.4°F10.8°C 50.3°F10.2°C 96% 1.1 mph SW1.8 kmh SW 3.5 mph5.6 kmh 30.06 in1017.9 mb - 0.00 in0.0 mm 0.13 in3.3 mm
03:10 AM 51.3°F10.7°C 50.2°F10.1°C 96% Calm Calm 1.1 mph1.8 kmh 30.07 in1018.3 mb - 0.01 in0.3 mm 0.13 in3.3 mm
03:20 AM 51.3°F10.7°C 50.2°F10.1°C 96% 1.1 mph SW1.8 kmh SW 2.3 mph3.7 kmh 30.07 in1018.3 mb - 0.00 in0.0 mm 0.13 in3.3 mm
03:30 AM 51.1°F10.6°C 50.0°F10.0°C 96% 4.6 mph SW7.4 kmh SW 5.8 mph9.3 kmh 30.07 in1018.3 mb - 0.00 in0.0 mm 0.13 in3.3 mm
03:40 AM 50.7°F10.4°C 49.6°F9.8°C 96% 1.1 mph S1.8 kmh S 3.5 mph5.6 kmh 30.07 in1018.3 mb - 0.00 in0.0 mm 0.13 in3.3 mm
03:50 AM 50.4°F10.2°C 49.3°F9.6°C 96% 4.6 mph W7.4 kmh W 8.1 mph13.0 kmh 30.07 in1018.3 mb - 0.00 in0.0 mm 0.13 in3.3 mm
04:00 AM 50.1°F10.1°C 49.0°F9.4°C 96% 2.3 mph SW3.7 kmh SW 4.6 mph7.4 kmh 30.07 in1018.3 mb - 0.00 in0.0 mm 0.13 in3.3 mm
04:10 AM 50.1°F10.1°C 49.0°F9.4°C 96% 1.1 mph SW1.8 kmh SW 3.5 mph5.6 kmh 30.07 in1018.3 mb - 0.00 in0.0 mm 0.13 in3.3 mm
04:20 AM 50.2°F10.1°C 49.1°F9.5°C 96% 6.9 mph SW11.1 kmh SW 8.1 mph13.0 kmh 30.07 in1018.3 mb - 0.00 in0.0 mm 0.13 in3.3 mm
04:30 AM 50.2°F10.1°C 49.1°F9.5°C 96% 1.1 mph SW1.8 kmh SW 5.8 mph9.3 kmh 30.07 in1018.3 mb - 0.00 in0.0 mm 0.13 in3.3 mm
04:40 AM 50.1°F10.1°C 49.0°F9.4°C 96% 3.5 mph SW5.6 kmh SW 11.5 mph18.5 kmh 30.07 in1018.3 mb - 0.00 in0.0 mm 0.13 in3.3 mm
04:50 AM 49.8°F9.9°C 48.7°F9.3°C 96% 3.5 mph WSW5.6 kmh WSW 3.5 mph5.6 kmh 30.07 in1018.3 mb - 0.00 in0.0 mm 0.13 in3.3 mm
05:00 AM 49.4°F9.7°C 48.3°F9.1°C 96% 3.5 mph SW5.6 kmh SW 4.6 mph7.4 kmh 30.06 in1017.9 mb - 0.00 in0.0 mm 0.13 in3.3 mm
05:10 AM 49.1°F9.5°C 48.0°F8.9°C 96% 4.6 mph SW7.4 kmh SW 6.9 mph11.1 kmh 30.09 in1019.0 mb - 0.00 in0.0 mm 0.13 in3.3 mm
05:20 AM 48.7°F9.3°C 47.6°F8.7°C 96% 3.5 mph SW5.6 kmh SW 5.8 mph9.3 kmh 30.06 in1017.9 mb - 0.00 in0.0 mm 0.13 in3.3 mm
05:30 AM 48.3°F9.1°C 47.2°F8.4°C 96% 1.1 mph W1.8 kmh W 4.6 mph7.4 kmh 30.06 in1017.9 mb - 0.00 in0.0 mm 0.13 in3.3 mm
05:40 AM 48.0°F8.9°C 46.9°F8.3°C 96% 5.8 mph WSW9.3 kmh WSW 9.2 mph14.8 kmh 30.07 in1018.3 mb - 0.00 in0.0 mm 0.13 in3.3 mm
05:50 AM 47.9°F8.8°C 46.8°F8.2°C 96% 2.3 mph SW3.7 kmh SW 10.4 mph16.7 kmh 30.07 in1018.3 mb - 0.00 in0.0 mm 0.13 in3.3 mm
06:00 AM 47.9°F8.8°C 46.8°F8.2°C 96% 4.6 mph SW7.4 kmh SW 8.1 mph13.0 kmh 30.07 in1018.3 mb - 0.00 in0.0 mm 0.13 in3.3 mm
06:10 AM 47.9°F8.8°C 46.8°F8.2°C 96% 3.5 mph WSW5.6 kmh WSW 5.8 mph9.3 kmh 30.07 in1018.3 mb - 0.00 in0.0 mm 0.13 in3.3 mm
06:20 AM 48.0°F8.9°C 46.9°F8.3°C 96% 3.5 mph SW5.6 kmh SW 5.8 mph9.3 kmh 30.07 in1018.3 mb - 0.00 in0.0 mm 0.13 in3.3 mm
06:30 AM 48.1°F8.9°C 47.0°F8.3°C 96% 1.1 mph SW1.8 kmh SW 4.6 mph7.4 kmh 30.07 in1018.3 mb - 0.00 in0.0 mm 0.13 in3.3 mm
06:40 AM 48.0°F8.9°C 46.9°F8.3°C 96% 3.5 mph SSW5.6 kmh SSW 4.6 mph7.4 kmh 30.07 in1018.3 mb - 0.00 in0.0 mm 0.13 in3.3 mm
06:50 AM 47.8°F8.8°C 46.7°F8.2°C 96% 2.3 mph SW3.7 kmh SW 3.5 mph5.6 kmh 30.07 in1018.3 mb - 0.00 in0.0 mm 0.13 in3.3 mm
07:10 AM 47.4°F8.6°C 46.3°F7.9°C 96% 1.1 mph N1.8 kmh N 2.3 mph3.7 kmh 30.07 in1018.3 mb - 0.00 in0.0 mm 0.13 in3.3 mm
07:20 AM 47.1°F8.4°C 45.7°F7.6°C 95% Calm Calm 1.1 mph1.8 kmh 30.07 in1018.3 mb - 0.00 in0.0 mm 0.13 in3.3 mm
07:30 AM 46.9°F8.3°C 45.8°F7.7°C 96% 2.3 mph SW3.7 kmh SW 3.5 mph5.6 kmh 30.07 in1018.3 mb - 0.00 in0.0 mm 0.13 in3.3 mm
07:40 AM 46.8°F8.2°C 45.7°F7.6°C 96% 2.3 mph SW3.7 kmh SW 2.3 mph3.7 kmh 30.07 in1018.3 mb - 0.00 in0.0 mm 0.13 in3.3 mm
07:50 AM 46.7°F8.2°C 45.6°F7.6°C 96% 1.1 mph SW1.8 kmh SW 2.3 mph3.7 kmh 30.07 in1018.3 mb - 0.00 in0.0 mm 0.13 in3.3 mm
08:00 AM 46.4°F8.0°C 45.1°F7.3°C 95% 5.8 mph SW9.3 kmh SW 9.2 mph14.8 kmh 30.07 in1018.3 mb - 0.00 in0.0 mm 0.13 in3.3 mm
08:10 AM 46.0°F7.8°C 44.7°F7.1°C 95% 5.8 mph SW9.3 kmh SW 9.2 mph14.8 kmh 30.07 in1018.3 mb - 0.00 in0.0 mm 0.13 in3.3 mm
08:20 AM 45.5°F7.5°C 44.1°F6.7°C 95% 10.4 mph SW16.7 kmh SW 13.8 mph22.2 kmh 30.07 in1018.3 mb - 0.00 in0.0 mm 0.13 in3.3 mm
08:30 AM 45.3°F7.4°C 43.9°F6.6°C 95% 13.8 mph SW22.2 kmh SW 24.2 mph38.9 kmh 30.07 in1018.3 mb - 0.00 in0.0 mm 0.13 in3.3 mm
08:40 AM 45.6°F7.6°C 44.3°F6.8°C 95% 9.2 mph SW14.8 kmh SW 19.6 mph31.5 kmh 30.08 in1018.6 mb - 0.00 in0.0 mm 0.13 in3.3 mm
08:50 AM 46.1°F7.8°C 44.7°F7.1°C 95% 6.9 mph SW11.1 kmh SW 9.2 mph14.8 kmh 30.08 in1018.6 mb - 0.01 in0.3 mm 0.14 in3.6 mm
09:00 AM 46.4°F8.0°C 45.0°F7.2°C 95% 6.9 mph SW11.1 kmh SW 12.7 mph20.4 kmh 30.08 in1018.6 mb - 0.03 in0.8 mm 0.17 in4.3 mm
09:10 AM 46.4°F8.0°C 45.0°F7.2°C 95% 6.9 mph SW11.1 kmh SW 11.5 mph18.5 kmh 30.08 in1018.6 mb - 0.09 in2.3 mm 0.24 in6.1 mm
09:20 AM 46.5°F8.1°C 45.1°F7.3°C 95% 5.8 mph SW9.3 kmh SW 11.5 mph18.5 kmh 30.08 in1018.6 mb - 0.00 in0.0 mm 0.24 in6.1 mm
09:30 AM 46.7°F8.2°C 45.3°F7.4°C 95% 9.2 mph SW14.8 kmh SW 18.4 mph29.6 kmh 30.08 in1018.6 mb - 0.03 in0.8 mm 0.28 in7.1 mm
09:40 AM 46.9°F8.3°C 45.5°F7.5°C 95% 6.9 mph SW11.1 kmh SW 11.5 mph18.5 kmh 30.09 in1019.0 mb - 0.09 in2.3 mm 0.37 in9.4 mm
09:50 AM 46.9°F8.3°C 45.5°F7.5°C 95% 9.2 mph SW14.8 kmh SW 16.1 mph25.9 kmh 30.09 in1019.0 mb - 0.06 in1.5 mm 0.42 in10.7 mm
10:00 AM 47.1°F8.4°C 45.8°F7.7°C 95% 9.2 mph SW14.8 kmh SW 13.8 mph22.2 kmh 30.12 in1020.0 mb - 0.09 in2.3 mm 0.50 in12.7 mm
10:10 AM 47.1°F8.4°C 45.7°F7.6°C 95% 6.9 mph WSW11.1 kmh WSW 8.1 mph13.0 kmh 30.12 in1020.0 mb - 0.06 in1.5 mm 0.56 in14.2 mm
10:20 AM 46.8°F8.2°C 45.4°F7.4°C 95% 5.8 mph SW9.3 kmh SW 8.1 mph13.0 kmh 30.12 in1020.0 mb - 0.00 in0.0 mm 0.56 in14.2 mm
10:30 AM 46.6°F8.1°C 45.3°F7.4°C 95% 3.5 mph SW5.6 kmh SW 10.4 mph16.7 kmh 30.12 in1020.0 mb - 0.00 in0.0 mm 0.56 in14.2 mm
10:40 AM 46.7°F8.2°C 45.3°F7.4°C 95% 5.8 mph SW9.3 kmh SW 8.1 mph13.0 kmh 30.11 in1019.6 mb - 0.00 in0.0 mm 0.56 in14.2 mm
10:50 AM 47.2°F8.4°C 45.8°F7.7°C 95% 3.5 mph SW5.6 kmh SW 8.1 mph13.0 kmh 30.12 in1020.0 mb - 0.00 in0.0 mm 0.56 in14.2 mm
11:00 AM 47.4°F8.6°C 46.0°F7.8°C 95% 6.9 mph SW11.1 kmh SW 12.7 mph20.4 kmh 30.13 in1020.3 mb - 0.04 in1.0 mm 0.60 in15.2 mm
11:10 AM 47.4°F8.6°C 46.0°F7.8°C 95% 6.9 mph SW11.1 kmh SW 11.5 mph18.5 kmh 30.14 in1020.7 mb - 0.08 in2.0 mm 0.67 in17.0 mm
11:20 AM 47.3°F8.5°C 45.9°F7.7°C 95% 6.9 mph SW11.1 kmh SW 11.5 mph18.5 kmh 30.15 in1021.0 mb - 0.03 in0.8 mm 0.70 in17.8 mm
11:30 AM 47.1°F8.4°C 45.7°F7.6°C 95% 8.1 mph SW13.0 kmh SW 13.8 mph22.2 kmh 30.16 in1021.3 mb - 0.02 in0.5 mm 0.72 in18.3 mm
11:40 AM 47.5°F8.6°C 46.1°F7.8°C 95% 5.8 mph SW9.3 kmh SW 9.2 mph14.8 kmh 30.17 in1021.7 mb - 0.00 in0.0 mm 0.72 in18.3 mm
11:50 AM 47.8°F8.8°C 46.4°F8.0°C 95% 8.1 mph SW13.0 kmh SW 23.0 mph37.0 kmh 30.17 in1021.7 mb - 0.00 in0.0 mm 0.72 in18.3 mm
12:00 PM 47.7°F8.7°C 46.3°F7.9°C 95% 8.1 mph SW13.0 kmh SW 11.5 mph18.5 kmh 30.18 in1022.0 mb - 0.00 in0.0 mm 0.72 in18.3 mm
12:10 PM 47.6°F8.7°C 46.2°F7.9°C 95% 5.8 mph SW9.3 kmh SW 9.2 mph14.8 kmh 30.18 in1022.0 mb - 0.00 in0.0 mm 0.72 in18.3 mm
12:20 PM 48.0°F8.9°C 46.6°F8.1°C 95% 8.1 mph SW13.0 kmh SW 11.5 mph18.5 kmh 30.17 in1021.7 mb - 0.00 in0.0 mm 0.72 in18.3 mm
12:30 PM 48.3°F9.1°C 46.9°F8.3°C 95% 9.2 mph SW14.8 kmh SW 16.1 mph25.9 kmh 30.18 in1022.0 mb - 0.00 in0.0 mm 0.72 in18.3 mm
12:40 PM 48.7°F9.3°C 47.3°F8.5°C 95% 4.6 mph SW7.4 kmh SW 10.4 mph16.7 kmh 30.18 in1022.0 mb - 0.00 in0.0 mm 0.72 in18.3 mm
12:50 PM 48.6°F9.2°C 47.3°F8.5°C 95% 6.9 mph SW11.1 kmh SW 11.5 mph18.5 kmh 30.17 in1021.7 mb - 0.00 in0.0 mm 0.72 in18.3 mm
01:00 PM 48.9°F9.4°C 47.3°F8.5°C 94% 9.2 mph SW14.8 kmh SW 16.1 mph25.9 kmh 30.16 in1021.3 mb - 0.00 in0.0 mm 0.72 in18.3 mm
01:10 PM 48.6°F9.2°C 46.7°F8.2°C 93% 10.4 mph SW16.7 kmh SW 19.6 mph31.5 kmh 30.16 in1021.3 mb - 0.00 in0.0 mm 0.72 in18.3 mm
01:20 PM 48.4°F9.1°C 46.2°F7.9°C 92% 3.5 mph SW5.6 kmh SW 6.9 mph11.1 kmh 30.18 in1022.0 mb - 0.01 in0.3 mm 0.72 in18.3 mm
01:30 PM 48.3°F9.1°C 46.1°F7.8°C 92% 4.6 mph SSW7.4 kmh SSW 8.1 mph13.0 kmh 30.18 in1022.0 mb - 0.02 in0.5 mm 0.73 in18.5 mm
01:40 PM 48.8°F9.3°C 46.8°F8.2°C 93% 5.8 mph SW9.3 kmh SW 6.9 mph11.1 kmh 30.18 in1022.0 mb - 0.00 in0.0 mm 0.73 in18.5 mm
01:50 PM 49.7°F9.8°C 47.8°F8.8°C 93% 8.1 mph SW13.0 kmh SW 11.5 mph18.5 kmh 30.18 in1022.0 mb - 0.00 in0.0 mm 0.73 in18.5 mm
02:00 PM 49.2°F9.6°C 47.3°F8.5°C 93% 6.9 mph SW11.1 kmh SW 12.7 mph20.4 kmh 30.19 in1022.4 mb - 0.00 in0.0 mm 0.73 in18.5 mm
02:10 PM 48.8°F9.3°C 46.8°F8.2°C 93% 5.8 mph SW9.3 kmh SW 8.1 mph13.0 kmh 30.19 in1022.4 mb - 0.00 in0.0 mm 0.73 in18.5 mm
02:20 PM 48.7°F9.3°C 46.5°F8.1°C 92% 3.5 mph SW5.6 kmh SW 8.1 mph13.0 kmh 30.19 in1022.4 mb - 0.00 in0.0 mm 0.73 in18.5 mm
02:30 PM 48.7°F9.3°C 46.5°F8.1°C 92% 6.9 mph SW11.1 kmh SW 9.2 mph14.8 kmh 30.19 in1022.4 mb - 0.00 in0.0 mm 0.73 in18.5 mm
02:40 PM 49.0°F9.4°C 46.8°F8.2°C 92% 6.9 mph SW11.1 kmh SW 10.4 mph16.7 kmh 30.19 in1022.4 mb - 0.00 in0.0 mm 0.73 in18.5 mm
02:50 PM 48.8°F9.3°C 46.0°F7.8°C 90% 4.6 mph SSW7.4 kmh SSW 5.8 mph9.3 kmh 30.19 in1022.4 mb - 0.01 in0.3 mm 0.74 in18.8 mm
03:00 PM 48.7°F9.3°C 45.3°F7.4°C 88% 5.8 mph SW9.3 kmh SW 6.9 mph11.1 kmh 30.19 in1022.4 mb - 0.00 in0.0 mm 0.74 in18.8 mm
03:10 PM 48.4°F9.1°C 44.4°F6.9°C 86% 4.6 mph SW7.4 kmh SW 11.5 mph18.5 kmh 30.19 in1022.4 mb - 0.00 in0.0 mm 0.74 in18.8 mm
03:20 PM 48.0°F8.9°C 44.1°F6.7°C 86% 2.3 mph SW3.7 kmh SW 6.9 mph11.1 kmh 30.19 in1022.4 mb - 0.00 in0.0 mm 0.74 in18.8 mm
03:30 PM 48.1°F8.9°C 44.1°F6.7°C 86% 4.6 mph SW7.4 kmh SW 10.4 mph16.7 kmh 30.20 in1022.7 mb - 0.00 in0.0 mm 0.74 in18.8 mm
03:40 PM 48.4°F9.1°C 44.7°F7.1°C 87% 3.5 mph SW5.6 kmh SW 5.8 mph9.3 kmh 30.20 in1022.7 mb - 0.00 in0.0 mm 0.74 in18.8 mm
03:50 PM 48.7°F9.3°C 44.7°F7.1°C 86% 6.9 mph SW11.1 kmh SW 11.5 mph18.5 kmh 30.21 in1023.0 mb - 0.00 in0.0 mm 0.74 in18.8 mm
04:00 PM 48.9°F9.4°C 45.2°F7.3°C 87% 6.9 mph SW11.1 kmh SW 11.5 mph18.5 kmh 30.22 in1023.4 mb - 0.00 in0.0 mm 0.74 in18.8 mm
04:10 PM 48.7°F9.3°C 45.0°F7.2°C 87% 1.1 mph SW1.8 kmh SW 8.1 mph13.0 kmh 30.23 in1023.7 mb - 0.01 in0.3 mm 0.75 in19.1 mm
04:20 PM 48.3°F9.1°C 44.6°F7.0°C 87% 4.6 mph SW7.4 kmh SW 6.9 mph11.1 kmh 30.23 in1023.7 mb - 0.01 in0.3 mm 0.76 in19.3 mm
04:30 PM 47.8°F8.8°C 44.2°F6.8°C 87% 2.3 mph SW3.7 kmh SW 5.8 mph9.3 kmh 30.24 in1024.0 mb - 0.01 in0.3 mm 0.76 in19.3 mm
04:40 PM 47.4°F8.6°C 44.0°F6.7°C 88% 1.1 mph SW1.8 kmh SW 1.1 mph1.8 kmh 30.24 in1024.0 mb - 0.02 in0.5 mm 0.77 in19.6 mm
04:50 PM 46.9°F8.3°C 43.8°F6.6°C 89% 1.1 mph SW1.8 kmh SW 1.1 mph1.8 kmh 30.24 in1024.0 mb - 0.00 in0.0 mm 0.77 in19.6 mm
05:00 PM 46.7°F8.2°C 43.6°F6.4°C 89% Calm Calm -- 30.25 in1024.4 mb - 0.00 in0.0 mm 0.77 in19.6 mm
05:10 PM 46.6°F8.1°C 43.5°F6.4°C 89% Calm Calm -- 30.25 in1024.4 mb - 0.00 in0.0 mm 0.77 in19.6 mm
05:20 PM 46.5°F8.1°C 43.7°F6.5°C 90% Calm Calm -- 30.26 in1024.7 mb - 0.00 in0.0 mm 0.77 in19.6 mm
05:30 PM 46.3°F7.9°C 43.5°F6.4°C 90% Calm Calm -- 30.27 in1025.1 mb - 0.00 in0.0 mm 0.77 in19.6 mm
05:40 PM 46.2°F7.9°C 43.4°F6.3°C 90% Calm Calm 1.1 mph1.8 kmh 30.27 in1025.1 mb - 0.00 in0.0 mm 0.77 in19.6 mm
05:50 PM 46.1°F7.8°C 43.6°F6.4°C 91% 1.1 mph SW1.8 kmh SW 1.1 mph1.8 kmh 30.28 in1025.4 mb - 0.00 in0.0 mm 0.77 in19.6 mm
06:00 PM 45.9°F7.7°C 43.4°F6.3°C 91% Calm Calm 2.3 mph3.7 kmh 30.28 in1025.4 mb - 0.00 in0.0 mm 0.77 in19.6 mm
06:10 PM 45.8°F7.7°C 43.3°F6.3°C 91% 2.3 mph NW3.7 kmh NW 3.5 mph5.6 kmh 30.29 in1025.7 mb - 0.00 in0.0 mm 0.77 in19.6 mm
06:20 PM 45.3°F7.4°C 42.8°F6.0°C 91% Calm Calm 2.3 mph3.7 kmh 30.29 in1025.7 mb - 0.00 in0.0 mm 0.77 in19.6 mm
06:30 PM 45.0°F7.2°C 42.5°F5.8°C 91% Calm Calm -- 30.29 in1025.7 mb - 0.00 in0.0 mm 0.77 in19.6 mm
06:40 PM 44.8°F7.1°C 42.3°F5.7°C 91% Calm Calm 1.1 mph1.8 kmh 30.29 in1025.7 mb - 0.00 in0.0 mm 0.77 in19.6 mm
06:50 PM 44.7°F7.1°C 42.2°F5.7°C 91% Calm Calm 2.3 mph3.7 kmh 30.30 in1026.1 mb - 0.00 in0.0 mm 0.77 in19.6 mm
07:00 PM 44.7°F7.1°C 42.2°F5.7°C 91% Calm Calm 2.3 mph3.7 kmh 30.31 in1026.4 mb - 0.00 in0.0 mm 0.77 in19.6 mm
07:10 PM 44.5°F6.9°C 42.0°F5.6°C 91% Calm Calm 2.3 mph3.7 kmh 30.31 in1026.4 mb - 0.00 in0.0 mm 0.77 in19.6 mm
07:20 PM 44.3°F6.8°C 41.8°F5.4°C 91% Calm Calm 2.3 mph3.7 kmh 30.31 in1026.4 mb - 0.00 in0.0 mm 0.77 in19.6 mm
07:30 PM 44.1°F6.7°C 41.9°F5.5°C 92% 1.1 mph SW1.8 kmh SW 1.1 mph1.8 kmh 30.32 in1026.8 mb - 0.00 in0.0 mm 0.77 in19.6 mm
07:40 PM 44.1°F6.7°C 41.9°F5.5°C 92% Calm Calm -- 30.32 in1026.8 mb - 0.00 in0.0 mm 0.77 in19.6 mm
07:50 PM 43.9°F6.6°C 41.7°F5.4°C 92% Calm Calm 1.1 mph1.8 kmh 30.33 in1027.1 mb - 0.00 in0.0 mm 0.77 in19.6 mm
08:00 PM 43.8°F6.6°C 41.6°F5.3°C 92% Calm Calm 2.3 mph3.7 kmh 30.33 in1027.1 mb - 0.00 in0.0 mm 0.77 in19.6 mm
08:10 PM 43.6°F6.4°C 41.4°F5.2°C 92% 1.1 mph SW1.8 kmh SW 2.3 mph3.7 kmh 30.33 in1027.1 mb - 0.00 in0.0 mm 0.77 in19.6 mm
08:20 PM 43.3°F6.3°C 41.1°F5.1°C 92% Calm Calm -- 30.34 in1027.4 mb - 0.00 in0.0 mm 0.77 in19.6 mm
08:30 PM 43.2°F6.2°C 41.0°F5.0°C 92% 1.1 mph SW1.8 kmh SW 4.6 mph7.4 kmh 30.34 in1027.4 mb - 0.00 in0.0 mm 0.77 in19.6 mm
08:40 PM 43.1°F6.2°C 41.2°F5.1°C 93% Calm Calm -- 30.34 in1027.4 mb - 0.01 in0.3 mm 0.78 in19.8 mm
08:50 PM 43.2°F6.2°C 41.3°F5.2°C 93% Calm Calm -- 30.35 in1027.8 mb - 0.00 in0.0 mm 0.78 in19.8 mm
09:00 PM 43.3°F6.3°C 41.4°F5.2°C 93% Calm Calm -- 30.35 in1027.8 mb - 0.00 in0.0 mm 0.78 in19.8 mm
09:10 PM 43.2°F6.2°C 41.3°F5.2°C 93% Calm Calm -- 30.35 in1027.8 mb - 0.00 in0.0 mm 0.78 in19.8 mm
09:20 PM 43.2°F6.2°C 41.3°F5.2°C 93% Calm Calm -- 30.36 in1028.1 mb - 0.00 in0.0 mm 0.78 in19.8 mm
09:30 PM 43.1°F6.2°C 41.2°F5.1°C 93% Calm Calm -- 30.36 in1028.1 mb - 0.00 in0.0 mm 0.78 in19.8 mm
09:40 PM 43.0°F6.1°C 41.1°F5.1°C 93% Calm Calm -- 30.36 in1028.1 mb - 0.00 in0.0 mm 0.78 in19.8 mm
09:50 PM 42.9°F6.1°C 41.3°F5.2°C 94% Calm Calm -- 30.36 in1028.1 mb - 0.00 in0.0 mm 0.78 in19.8 mm
10:00 PM 43.0°F6.1°C 41.4°F5.2°C 94% 1.1 mph SW1.8 kmh SW 1.1 mph1.8 kmh 30.36 in1028.1 mb - 0.00 in0.0 mm 0.78 in19.8 mm
10:10 PM 43.0°F6.1°C 41.4°F5.2°C 94% 2.3 mph SW3.7 kmh SW 4.6 mph7.4 kmh 30.36 in1028.1 mb - 0.00 in0.0 mm 0.78 in19.8 mm
10:20 PM 43.1°F6.2°C 41.5°F5.3°C 94% 1.1 mph SW1.8 kmh SW 2.3 mph3.7 kmh 30.37 in1028.4 mb - 0.00 in0.0 mm 0.78 in19.8 mm
10:30 PM 43.1°F6.2°C 41.5°F5.3°C 94% 1.1 mph SW1.8 kmh SW 2.3 mph3.7 kmh 30.37 in1028.4 mb - 0.00 in0.0 mm 0.78 in19.8 mm
10:40 PM 43.0°F6.1°C 41.4°F5.2°C 94% Calm Calm -- 30.37 in1028.4 mb - 0.00 in0.0 mm 0.78 in19.8 mm
10:50 PM 42.9°F6.1°C 41.3°F5.2°C 94% Calm Calm -- 30.38 in1028.8 mb - 0.00 in0.0 mm 0.78 in19.8 mm
11:00 PM 42.6°F5.9°C 41.0°F5.0°C 94% 1.1 mph SW1.8 kmh SW 2.3 mph3.7 kmh 30.38 in1028.8 mb - 0.00 in0.0 mm 0.78 in19.8 mm
11:10 PM 42.3°F5.7°C 40.7°F4.8°C 94% Calm Calm -- 30.38 in1028.8 mb - 0.00 in0.0 mm 0.78 in19.8 mm
11:20 PM 42.2°F5.7°C 40.6°F4.8°C 94% Calm Calm -- 30.39 in1029.1 mb - 0.00 in0.0 mm 0.78 in19.8 mm
11:30 PM 42.3°F5.7°C 40.7°F4.8°C 94% Calm Calm -- 30.39 in1029.1 mb - 0.00 in0.0 mm 0.78 in19.8 mm
11:40 PM 42.5°F5.8°C 40.9°F4.9°C 94% Calm Calm -- 30.39 in1029.1 mb - 0.00 in0.0 mm 0.78 in19.8 mm
11:50 PM 42.6°F5.9°C 41.0°F5.0°C 94% Calm Calm -- 30.38 in1028.8 mb - 0.00 in0.0 mm 0.78 in19.8 mm